sensor_id;sensor_type;location;lat;lon;timestamp;pressure;altitude;pressure_sealevel;temperature;humidity
68366;BME280;55283;51.466;5.478;2023-02-20T00:01:51;102444.19;;;20.24;46.88
68366;BME280;55283;51.466;5.478;2023-02-20T00:04:17;102444.19;;;20.21;46.94
68366;BME280;55283;51.466;5.478;2023-02-20T00:06:43;102441.81;;;20.23;47.02
68366;BME280;55283;51.466;5.478;2023-02-20T00:09:08;102456.59;;;20.23;46.87
68366;BME280;55283;51.466;5.478;2023-02-20T00:11:34;102439.38;;;20.21;46.93
68366;BME280;55283;51.466;5.478;2023-02-20T00:13:59;102444.19;;;20.21;46.84
68366;BME280;55283;51.466;5.478;2023-02-20T00:16:25;102445.78;;;20.22;46.92
68366;BME280;55283;51.466;5.478;2023-02-20T00:18:50;102455.81;;;20.19;46.69
68366;BME280;55283;51.466;5.478;2023-02-20T00:21:15;102452.59;;;20.21;47.00
68366;BME280;55283;51.466;5.478;2023-02-20T00:23:41;102432.19;;;20.20;46.82
68366;BME280;55283;51.466;5.478;2023-02-20T00:26:11;102429.00;;;20.15;46.68
68366;BME280;55283;51.466;5.478;2023-02-20T00:28:37;102424.19;;;20.15;46.81
68366;BME280;55283;51.466;5.478;2023-02-20T00:31:05;102418.59;;;20.15;46.94
68366;BME280;55283;51.466;5.478;2023-02-20T00:33:30;102421.78;;;20.21;46.70
68366;BME280;55283;51.466;5.478;2023-02-20T00:35:56;102419.78;;;20.21;46.71
68366;BME280;55283;51.466;5.478;2023-02-20T00:38:21;102409.81;;;20.17;46.63
68366;BME280;55283;51.466;5.478;2023-02-20T00:40:47;102396.22;;;20.11;46.59
68366;BME280;55283;51.466;5.478;2023-02-20T00:43:12;102396.59;;;20.21;46.54
68366;BME280;55283;51.466;5.478;2023-02-20T00:45:37;102392.59;;;20.15;46.46
68366;BME280;55283;51.466;5.478;2023-02-20T00:48:03;102392.22;;;20.20;46.60
68366;BME280;55283;51.466;5.478;2023-02-20T00:50:28;102381.41;;;20.11;46.67
68366;BME280;55283;51.466;5.478;2023-02-20T00:52:54;102392.22;;;20.20;46.60
68366;BME280;55283;51.466;5.478;2023-02-20T00:55:19;102375.81;;;20.15;46.58
68366;BME280;55283;51.466;5.478;2023-02-20T00:57:45;102382.59;;;20.17;46.57
68366;BME280;55283;51.466;5.478;2023-02-20T01:00:17;102361.81;;;20.11;46.63
68366;BME280;55283;51.466;5.478;2023-02-20T01:02:43;102371.78;;;20.16;46.64
68366;BME280;55283;51.466;5.478;2023-02-20T01:05:08;102367.81;;;20.17;46.73
68366;BME280;55283;51.466;5.478;2023-02-20T01:07:34;102351.81;;;20.17;46.88
68366;BME280;55283;51.466;5.478;2023-02-20T01:09:59;102353.81;;;20.17;46.53
68366;BME280;55283;51.466;5.478;2023-02-20T01:12:24;102353.41;;;20.18;46.57
68366;BME280;55283;51.466;5.478;2023-02-20T01:14:50;102350.59;;;20.18;46.64
68366;BME280;55283;51.466;5.478;2023-02-20T01:17:15;102361.38;;;20.16;46.75
68366;BME280;55283;51.466;5.478;2023-02-20T01:19:42;102365.00;;;20.17;46.57
68366;BME280;55283;51.466;5.478;2023-02-20T01:22:08;102363.41;;;20.16;46.67
68366;BME280;55283;51.466;5.478;2023-02-20T01:24:33;102372.59;;;20.16;46.60
68366;BME280;55283;51.466;5.478;2023-02-20T01:26:59;102371.41;;;20.13;46.47
68366;BME280;55283;51.466;5.478;2023-02-20T01:29:24;102381.41;;;20.15;46.79
68366;BME280;55283;51.466;5.478;2023-02-20T01:31:50;102375.81;;;20.15;46.33
68366;BME280;55283;51.466;5.478;2023-02-20T01:34:16;102371.41;;;20.13;46.42
68366;BME280;55283;51.466;5.478;2023-02-20T01:36:49;102372.22;;;20.14;46.46
68366;BME280;55283;51.466;5.478;2023-02-20T01:39:28;102373.00;;;20.15;46.55
68366;BME280;55283;51.466;5.478;2023-02-20T01:42:00;102366.63;;;20.07;46.47
68366;BME280;55283;51.466;5.478;2023-02-20T01:44:32;102360.22;;;20.13;46.51
68366;BME280;55283;51.466;5.478;2023-02-20T01:47:05;102357.81;;;20.12;46.47
68366;BME280;55283;51.466;5.478;2023-02-20T01:49:37;102357.00;;;20.15;46.43
68366;BME280;55283;51.466;5.478;2023-02-20T01:54:33;102346.22;;;20.06;46.68
68366;BME280;55283;51.466;5.478;2023-02-20T01:57:02;102343.44;;;20.13;46.45
68366;BME280;55283;51.466;5.478;2023-02-20T01:59:31;102334.19;;;20.13;46.40
68366;BME280;55283;51.466;5.478;2023-02-20T02:01:57;102329.44;;;20.13;46.55
68366;BME280;55283;51.466;5.478;2023-02-20T02:04:23;102312.22;;;20.11;46.62
68366;BME280;55283;51.466;5.478;2023-02-20T02:06:51;102306.63;;;20.11;46.42
68366;BME280;55283;51.466;5.478;2023-02-20T02:11:57;102299.44;;;20.10;46.55
68366;BME280;55283;51.466;5.478;2023-02-20T02:14:23;102298.63;;;20.10;46.60
68366;BME280;55283;51.466;5.478;2023-02-20T02:33:12;102265.06;;;20.03;46.34
68366;BME280;55283;51.466;5.478;2023-02-20T02:38:38;102279.44;;;20.08;46.34
68366;BME280;55283;51.466;5.478;2023-02-20T02:41:23;102269.06;;;20.05;46.45
68366;BME280;55283;51.466;5.478;2023-02-20T02:49:18;102261.84;;;20.04;46.67
68366;BME280;55283;51.466;5.478;2023-02-20T02:51:46;102254.25;;;20.01;46.28
68366;BME280;55283;51.466;5.478;2023-02-20T02:54:18;102259.44;;;20.06;46.30
68366;BME280;55283;51.466;5.478;2023-02-20T02:56:47;102251.84;;;20.07;46.30
68366;BME280;55283;51.466;5.478;2023-02-20T02:59:24;102251.84;;;20.03;46.34
68366;BME280;55283;51.466;5.478;2023-02-20T03:01:59;102246.66;;;20.05;46.16
68366;BME280;55283;51.466;5.478;2023-02-20T03:04:28;102242.25;;;20.04;46.35
68366;BME280;55283;51.466;5.478;2023-02-20T03:07:05;102233.88;;;20.01;46.42
68366;BME280;55283;51.466;5.478;2023-02-20T03:09:34;102228.66;;;20.06;46.33
68366;BME280;55283;51.466;5.478;2023-02-20T03:12:02;102227.06;;;20.05;46.22
68366;BME280;55283;51.466;5.478;2023-02-20T03:14:54;102225.84;;;20.06;46.44
68366;BME280;55283;51.466;5.478;2023-02-20T03:20:50;102222.66;;;20.04;46.24
68366;BME280;55283;51.466;5.478;2023-02-20T03:23:23;102225.06;;;20.02;46.40
68366;BME280;55283;51.466;5.478;2023-02-20T03:26:01;102227.88;;;20.02;46.39
68366;BME280;55283;51.466;5.478;2023-02-20T03:28:34;102226.25;;;20.01;46.42
68366;BME280;55283;51.466;5.478;2023-02-20T03:31:14;102226.25;;;20.01;46.22
68366;BME280;55283;51.466;5.478;2023-02-20T03:33:48;102215.88;;;19.98;46.64
68366;BME280;55283;51.466;5.478;2023-02-20T03:36:38;102221.50;;;20.02;46.33
68366;BME280;55283;51.466;5.478;2023-02-20T03:39:31;102221.91;;;19.97;46.52
68366;BME280;55283;51.466;5.478;2023-02-20T03:42:17;102234.66;;;20.01;46.17
68366;BME280;55283;51.466;5.478;2023-02-20T03:45:04;102226.28;;;19.98;46.51
68366;BME280;55283;51.466;5.478;2023-02-20T03:47:32;102219.88;;;19.97;46.33
68366;BME280;55283;51.466;5.478;2023-02-20T03:49:59;102213.91;;;19.99;46.48
68366;BME280;55283;51.466;5.478;2023-02-20T03:52:26;102225.88;;;19.99;46.39
68366;BME280;55283;51.466;5.478;2023-02-20T03:54:52;102225.88;;;19.99;46.36
68366;BME280;55283;51.466;5.478;2023-02-20T03:57:23;102219.06;;;20.00;46.31
68366;BME280;55283;51.466;5.478;2023-02-20T03:59:57;102216.69;;;20.02;46.25
68366;BME280;55283;51.466;5.478;2023-02-20T04:02:29;102211.44;;;20.04;46.17
68366;BME280;55283;51.466;5.478;2023-02-20T04:04:59;102200.69;;;20.03;46.25
68366;BME280;55283;51.466;5.478;2023-02-20T04:07:34;102202.69;;;20.02;46.39
68366;BME280;55283;51.466;5.478;2023-02-20T04:10:02;102202.69;;;20.02;46.14
68366;BME280;55283;51.466;5.478;2023-02-20T04:12:33;102196.69;;;20.00;46.05
68366;BME280;55283;51.466;5.478;2023-02-20T04:15:00;102211.09;;;20.02;46.20
68366;BME280;55283;51.466;5.478;2023-02-20T04:17:31;102207.91;;;19.97;46.31
68366;BME280;55283;51.466;5.478;2023-02-20T04:20:00;102213.47;;;20.00;46.46
68366;BME280;55283;51.466;5.478;2023-02-20T04:22:29;102212.25;;;20.01;46.14
68366;BME280;55283;51.466;5.478;2023-02-20T04:25:00;102219.88;;;20.01;46.42
68366;BME280;55283;51.466;5.478;2023-02-20T04:27:27;102227.09;;;20.02;46.28
68366;BME280;55283;51.466;5.478;2023-02-20T04:29:53;102229.06;;;20.01;46.41
68366;BME280;55283;51.466;5.478;2023-02-20T04:32:19;102225.88;;;20.03;46.40
68366;BME280;55283;51.466;5.478;2023-02-20T04:34:44;102229.47;;;20.03;46.29
68366;BME280;55283;51.466;5.478;2023-02-20T04:37:12;102222.66;;;20.01;46.20
68366;BME280;55283;51.466;5.478;2023-02-20T04:39:38;102224.28;;;20.02;46.19
68366;BME280;55283;51.466;5.478;2023-02-20T04:42:04;102219.50;;;19.99;46.56
68366;BME280;55283;51.466;5.478;2023-02-20T04:44:30;102229.47;;;20.00;46.18
68366;BME280;55283;51.466;5.478;2023-02-20T04:46:56;102227.47;;;20.00;46.56
68366;BME280;55283;51.466;5.478;2023-02-20T04:49:22;102233.88;;;20.01;46.29
68366;BME280;55283;51.466;5.478;2023-02-20T04:51:47;102237.88;;;20.00;46.26
68366;BME280;55283;51.466;5.478;2023-02-20T04:54:12;102229.06;;;20.01;46.35
68366;BME280;55283;51.466;5.478;2023-02-20T04:56:38;102236.28;;;20.02;46.35
68366;BME280;55283;51.466;5.478;2023-02-20T04:59:03;102233.47;;;20.02;46.37
68366;BME280;55283;51.466;5.478;2023-02-20T05:01:29;102227.47;;;20.00;46.18
68366;BME280;55283;51.466;5.478;2023-02-20T05:03:54;102228.28;;;20.01;46.11
68366;BME280;55283;51.466;5.478;2023-02-20T05:06:19;102237.47;;;20.01;46.38
68366;BME280;55283;51.466;5.478;2023-02-20T05:08:45;102233.09;;;19.97;46.13
68366;BME280;55283;51.466;5.478;2023-02-20T05:11:10;102228.28;;;19.97;46.33
68366;BME280;55283;51.466;5.478;2023-02-20T05:13:36;102236.28;;;19.99;46.35
68366;BME280;55283;51.466;5.478;2023-02-20T05:16:01;102227.47;;;20.00;46.24
68366;BME280;55283;51.466;5.478;2023-02-20T05:18:27;102232.66;;;19.98;46.19
68366;BME280;55283;51.466;5.478;2023-02-20T05:20:53;102237.47;;;19.98;46.16
68366;BME280;55283;51.466;5.478;2023-02-20T05:23:37;102240.28;;;19.94;46.50
68366;BME280;55283;51.466;5.478;2023-02-20T05:26:07;102240.69;;;19.96;46.37
68366;BME280;55283;51.466;5.478;2023-02-20T05:28:33;102230.28;;;19.97;46.36
68366;BME280;55283;51.466;5.478;2023-02-20T05:30:58;102229.09;;;19.94;46.15
68366;BME280;55283;51.466;5.478;2023-02-20T05:33:24;102239.50;;;19.94;46.43
68366;BME280;55283;51.466;5.478;2023-02-20T05:35:49;102230.31;;;19.93;46.59
68366;BME280;55283;51.466;5.478;2023-02-20T05:38:17;102224.72;;;19.93;46.33
68366;BME280;55283;51.466;5.478;2023-02-20T05:40:43;102238.69;;;19.97;46.24
68366;BME280;55283;51.466;5.478;2023-02-20T05:43:08;102233.47;;;19.95;46.44
68366;BME280;55283;51.466;5.478;2023-02-20T05:45:34;102235.50;;;19.95;46.35
68366;BME280;55283;51.466;5.478;2023-02-20T05:47:59;102234.72;;;19.90;46.38
68366;BME280;55283;51.466;5.478;2023-02-20T05:50:24;102242.28;;;19.97;46.38
68366;BME280;55283;51.466;5.478;2023-02-20T05:52:50;102243.50;;;19.96;46.11
68366;BME280;55283;51.466;5.478;2023-02-20T05:55:15;102243.06;;;19.98;46.02
68366;BME280;55283;51.466;5.478;2023-02-20T05:57:41;102239.50;;;19.94;46.06
68366;BME280;55283;51.466;5.478;2023-02-20T06:00:06;102232.31;;;19.96;46.14
68366;BME280;55283;51.466;5.478;2023-02-20T06:02:32;102236.69;;;19.97;46.13
68366;BME280;55283;51.466;5.478;2023-02-20T06:04:58;102243.50;;;19.96;46.24
68366;BME280;55283;51.466;5.478;2023-02-20T06:07:24;102240.28;;;19.94;46.44
68366;BME280;55283;51.466;5.478;2023-02-20T06:09:49;102238.72;;;19.93;46.49
68366;BME280;55283;51.466;5.478;2023-02-20T06:12:14;102241.09;;;19.91;46.37
68366;BME280;55283;51.466;5.478;2023-02-20T06:14:40;102247.50;;;19.92;46.43
68366;BME280;55283;51.466;5.478;2023-02-20T06:17:05;102246.69;;;19.91;46.24
68366;BME280;55283;51.466;5.478;2023-02-20T06:19:31;102248.28;;;19.92;46.38
68366;BME280;55283;51.466;5.478;2023-02-20T06:21:56;102247.50;;;19.92;46.45
68366;BME280;55283;51.466;5.478;2023-02-20T06:24:25;102241.91;;;19.88;46.60
68366;BME280;55283;51.466;5.478;2023-02-20T06:26:51;102249.06;;;19.93;46.37
68366;BME280;55283;51.466;5.478;2023-02-20T06:29:16;102240.69;;;19.89;46.39
68366;BME280;55283;51.466;5.478;2023-02-20T06:31:42;102239.88;;;19.92;46.66
68366;BME280;55283;51.466;5.478;2023-02-20T06:34:08;102252.66;;;20.00;46.54
68366;BME280;55283;51.466;5.478;2023-02-20T06:36:36;102237.47;;;20.05;46.97
68366;BME280;55283;51.466;5.478;2023-02-20T06:39:04;102239.44;;;20.04;46.87
68366;BME280;55283;51.466;5.478;2023-02-20T06:41:29;102239.88;;;19.99;47.11
68366;BME280;55283;51.466;5.478;2023-02-20T06:43:55;102222.31;;;19.92;47.34
68366;BME280;55283;51.466;5.478;2023-02-20T06:46:21;102243.50;;;19.96;47.35
68366;BME280;55283;51.466;5.478;2023-02-20T06:48:49;102236.28;;;19.95;47.53
68366;BME280;55283;51.466;5.478;2023-02-20T06:51:17;102243.50;;;19.96;47.60
68366;BME280;55283;51.466;5.478;2023-02-20T06:53:42;102236.66;;;20.04;47.85
68366;BME280;55283;51.466;5.478;2023-02-20T06:56:09;102234.63;;;20.12;47.42
68366;BME280;55283;51.466;5.478;2023-02-20T06:58:36;102245.03;;;20.11;47.96
68366;BME280;55283;51.466;5.478;2023-02-20T07:01:01;102249.81;;;20.15;48.09
68366;BME280;55283;51.466;5.478;2023-02-20T07:03:26;102254.59;;;20.18;47.76
68366;BME280;55283;51.466;5.478;2023-02-20T07:05:52;102246.16;;;20.25;49.16
68366;BME280;55283;51.466;5.478;2023-02-20T07:08:17;102252.59;;;20.22;48.58
68366;BME280;55283;51.466;5.478;2023-02-20T07:10:43;102247.03;;;20.15;48.53
68366;BME280;55283;51.466;5.478;2023-02-20T07:13:08;102247.41;;;20.13;48.33
68366;BME280;55283;51.466;5.478;2023-02-20T07:15:33;102251.41;;;20.16;48.68
68366;BME280;55283;51.466;5.478;2023-02-20T07:17:59;102251.44;;;20.08;49.23
68366;BME280;55283;51.466;5.478;2023-02-20T07:20:24;102265.84;;;20.03;49.07
68366;BME280;55283;51.466;5.478;2023-02-20T07:22:51;102253.91;;;19.88;43.64
68366;BME280;55283;51.466;5.478;2023-02-20T07:25:18;102255.50;;;19.75;41.93
68366;BME280;55283;51.466;5.478;2023-02-20T07:27:43;102269.53;;;19.64;41.54
68366;BME280;55283;51.466;5.478;2023-02-20T07:30:09;102261.94;;;19.58;41.04
68366;BME280;55283;51.466;5.478;2023-02-20T07:32:35;102254.72;;;19.46;40.83
68366;BME280;55283;51.466;5.478;2023-02-20T07:35:00;102258.75;;;19.38;40.67
68366;BME280;55283;51.466;5.478;2023-02-20T07:37:25;102267.13;;;19.31;40.82
68366;BME280;55283;51.466;5.478;2023-02-20T07:39:51;102249.16;;;19.25;40.00
68366;BME280;55283;51.466;5.478;2023-02-20T07:42:16;102254.34;;;19.19;40.05
68366;BME280;55283;51.466;5.478;2023-02-20T07:44:43;102245.94;;;19.15;39.08
68366;BME280;55283;51.466;5.478;2023-02-20T07:47:11;102246.75;;;19.19;40.86
68366;BME280;55283;51.466;5.478;2023-02-20T07:49:37;102250.72;;;19.26;41.52
68366;BME280;55283;51.466;5.478;2023-02-20T07:52:02;102251.94;;;19.35;42.39
68366;BME280;55283;51.466;5.478;2023-02-20T07:54:28;102261.13;;;19.43;42.37
68366;BME280;55283;51.466;5.478;2023-02-20T07:56:54;102257.50;;;19.46;43.27
68366;BME280;55283;51.466;5.478;2023-02-20T07:59:20;102250.75;;;19.47;42.88
68366;BME280;55283;51.466;5.478;2023-02-20T08:01:45;102252.72;;;19.43;43.02
68366;BME280;55283;51.466;5.478;2023-02-20T08:04:10;102248.72;;;19.40;43.62
68366;BME280;55283;51.466;5.478;2023-02-20T08:06:36;102241.94;;;19.49;43.64
68366;BME280;55283;51.466;5.478;2023-02-20T08:09:01;102241.13;;;19.52;44.20
68366;BME280;55283;51.466;5.478;2023-02-20T08:11:27;102246.34;;;19.53;44.34
68366;BME280;55283;51.466;5.478;2023-02-20T08:13:52;102262.31;;;19.49;44.54
68366;BME280;55283;51.466;5.478;2023-02-20T08:16:20;102251.53;;;19.51;44.35
68366;BME280;55283;51.466;5.478;2023-02-20T08:18:46;102253.53;;;19.58;44.42
68366;BME280;55283;51.466;5.478;2023-02-20T08:21:12;102246.75;;;19.59;44.12
68366;BME280;55283;51.466;5.478;2023-02-20T08:23:37;102245.56;;;19.60;44.34
68366;BME280;55283;51.466;5.478;2023-02-20T08:26:04;102254.38;;;19.58;44.61
68366;BME280;55283;51.466;5.478;2023-02-20T08:28:30;102253.94;;;19.60;44.74
68366;BME280;55283;51.466;5.478;2023-02-20T08:30:55;102255.56;;;19.64;45.06
68366;BME280;55283;51.466;5.478;2023-02-20T08:33:21;102243.53;;;19.71;44.43
68366;BME280;55283;51.466;5.478;2023-02-20T08:35:46;102244.75;;;19.70;45.09
68366;BME280;55283;51.466;5.478;2023-02-20T08:38:37;102251.94;;;19.60;45.22
68366;BME280;55283;51.466;5.478;2023-02-20T08:41:05;102247.94;;;19.68;44.82
68366;BME280;55283;51.466;5.478;2023-02-20T08:43:32;102242.75;;;19.67;45.06
68366;BME280;55283;51.466;5.478;2023-02-20T08:45:58;102238.75;;;19.68;45.25
68366;BME280;55283;51.466;5.478;2023-02-20T08:48:24;102241.94;;;19.70;45.11
68366;BME280;55283;51.466;5.478;2023-02-20T08:50:49;102231.56;;;19.71;45.08
68366;BME280;55283;51.466;5.478;2023-02-20T08:53:15;102235.94;;;19.72;45.27
68366;BME280;55283;51.466;5.478;2023-02-20T08:55:41;102242.75;;;19.71;45.32
68366;BME280;55283;51.466;5.478;2023-02-20T08:58:06;102225.97;;;19.60;45.92
68366;BME280;55283;51.466;5.478;2023-02-20T09:00:32;102245.53;;;19.71;45.72
68366;BME280;55283;51.466;5.478;2023-02-20T09:02:57;102238.34;;;19.77;45.31
68366;BME280;55283;51.466;5.478;2023-02-20T09:05:24;102247.53;;;19.77;45.33
68366;BME280;55283;51.466;5.478;2023-02-20T09:07:49;102245.53;;;19.78;45.51
68366;BME280;55283;51.466;5.478;2023-02-20T09:10:19;102238.31;;;19.80;45.87
68366;BME280;55283;51.466;5.478;2023-02-20T09:12:45;102245.94;;;19.76;45.69
68366;BME280;55283;51.466;5.478;2023-02-20T09:15:11;102245.16;;;19.65;46.29
68366;BME280;55283;51.466;5.478;2023-02-20T09:17:37;102249.56;;;19.62;46.38
68366;BME280;55283;51.466;5.478;2023-02-20T09:20:03;102256.34;;;19.65;46.68
68366;BME280;55283;51.466;5.478;2023-02-20T09:22:29;102241.56;;;19.68;46.78
68366;BME280;55283;51.466;5.478;2023-02-20T09:24:55;102230.34;;;19.61;47.10
68366;BME280;55283;51.466;5.478;2023-02-20T09:27:20;102236.38;;;19.59;47.17
68366;BME280;55283;51.466;5.478;2023-02-20T09:29:46;102229.97;;;19.62;47.37
68366;BME280;55283;51.466;5.478;2023-02-20T09:32:12;102236.34;;;19.70;47.07
68366;BME280;55283;51.466;5.478;2023-02-20T09:34:37;102229.16;;;19.65;47.57
68366;BME280;55283;51.466;5.478;2023-02-20T09:37:03;102248.75;;;19.73;47.65
68366;BME280;55283;51.466;5.478;2023-02-20T09:39:29;102236.34;;;19.74;47.50
68366;BME280;55283;51.466;5.478;2023-02-20T09:42:17;102251.53;;;19.73;47.50
68366;BME280;55283;51.466;5.478;2023-02-20T09:44:51;102239.53;;;19.76;47.34
68366;BME280;55283;51.466;5.478;2023-02-20T09:47:33;102225.56;;;19.76;47.08
68366;BME280;55283;51.466;5.478;2023-02-20T09:50:08;102221.94;;;19.75;47.30
68366;BME280;55283;51.466;5.478;2023-02-20T09:52:38;102228.72;;;19.78;47.12
68366;BME280;55283;51.466;5.478;2023-02-20T09:55:09;102227.56;;;19.79;47.20
68366;BME280;55283;51.466;5.478;2023-02-20T09:57:36;102221.16;;;19.82;47.07
68366;BME280;55283;51.466;5.478;2023-02-20T10:00:12;102221.91;;;19.86;47.65
68366;BME280;55283;51.466;5.478;2023-02-20T10:02:45;102212.69;;;19.93;47.42
68366;BME280;55283;51.466;5.478;2023-02-20T10:05:24;102203.94;;;19.90;47.30
68366;BME280;55283;51.466;5.478;2023-02-20T10:07:50;102194.75;;;19.90;47.28
68366;BME280;55283;51.466;5.478;2023-02-20T10:15:36;102209.13;;;19.85;47.28
68366;BME280;55283;51.466;5.478;2023-02-20T10:21:05;102210.31;;;19.84;47.43
68366;BME280;55283;51.466;5.478;2023-02-20T10:23:43;102221.94;;;19.82;47.58
68366;BME280;55283;51.466;5.478;2023-02-20T10:26:27;102233.94;;;19.76;47.41
68366;BME280;55283;51.466;5.478;2023-02-20T10:28:55;102231.53;;;19.78;47.36
68366;BME280;55283;51.466;5.478;2023-02-20T10:31:38;102238.75;;;19.79;47.56
68366;BME280;55283;51.466;5.478;2023-02-20T10:34:11;102229.94;;;19.77;47.41
68366;BME280;55283;51.466;5.478;2023-02-20T10:37:13;102224.31;;;19.84;47.32
68366;BME280;55283;51.466;5.478;2023-02-20T10:39:46;102236.34;;;19.84;47.11
68366;BME280;55283;51.466;5.478;2023-02-20T10:42:36;102221.94;;;19.82;47.23
68366;BME280;55283;51.466;5.478;2023-02-20T10:45:17;102240.28;;;19.87;46.42
68366;BME280;55283;51.466;5.478;2023-02-20T10:47:57;102232.72;;;19.91;46.71
68366;BME280;55283;51.466;5.478;2023-02-20T10:58:56;102227.91;;;19.88;47.03
68366;BME280;55283;51.466;5.478;2023-02-20T11:01:26;102241.09;;;19.91;46.99
68366;BME280;55283;51.466;5.478;2023-02-20T11:04:11;102213.13;;;19.87;47.50
68366;BME280;55283;51.466;5.478;2023-02-20T11:06:42;102221.94;;;19.82;47.87
68366;BME280;55283;51.466;5.478;2023-02-20T11:09:09;102240.31;;;19.90;47.25
68366;BME280;55283;51.466;5.478;2023-02-20T11:11:45;102232.66;;;19.98;47.17
68366;BME280;55283;51.466;5.478;2023-02-20T11:14:18;102228.31;;;19.94;47.16
68366;BME280;55283;51.466;5.478;2023-02-20T11:16:51;102227.91;;;19.92;46.98
68366;BME280;55283;51.466;5.478;2023-02-20T11:19:27;102231.50;;;19.92;47.79
68366;BME280;55283;51.466;5.478;2023-02-20T11:21:53;102222.72;;;19.90;47.81
68366;BME280;55283;51.466;5.478;2023-02-20T11:24:33;102220.75;;;19.80;47.80
68366;BME280;55283;51.466;5.478;2023-02-20T11:29:48;102223.16;;;19.74;48.25
68366;BME280;55283;51.466;5.478;2023-02-20T11:34:44;102203.97;;;19.76;48.08
68366;BME280;55283;51.466;5.478;2023-02-20T11:37:10;102223.53;;;19.80;48.34
68366;BME280;55283;51.466;5.478;2023-02-20T11:39:36;102221.16;;;19.82;48.55
68366;BME280;55283;51.466;5.478;2023-02-20T11:42:05;102207.53;;;19.87;48.72
68366;BME280;55283;51.466;5.478;2023-02-20T11:44:35;102202.31;;;19.89;48.44
68366;BME280;55283;51.466;5.478;2023-02-20T11:47:18;102211.91;;;19.92;48.56
68366;BME280;55283;51.466;5.478;2023-02-20T11:49:45;102197.91;;;19.92;48.73
68366;BME280;55283;51.466;5.478;2023-02-20T11:52:22;102201.91;;;19.91;48.63
68366;BME280;55283;51.466;5.478;2023-02-20T11:55:09;102184.31;;;19.94;48.62
68366;BME280;55283;51.466;5.478;2023-02-20T11:57:40;102193.13;;;19.96;48.47
68366;BME280;55283;51.466;5.478;2023-02-20T12:00:14;102176.34;;;19.89;48.41
68366;BME280;55283;51.466;5.478;2023-02-20T12:03:13;102168.72;;;19.89;48.40
68366;BME280;55283;51.466;5.478;2023-02-20T12:05:46;102167.13;;;19.92;48.09
68366;BME280;55283;51.466;5.478;2023-02-20T12:08:35;102167.94;;;19.96;48.05
68366;BME280;55283;51.466;5.478;2023-02-20T12:13:40;102155.91;;;20.03;47.82
68366;BME280;55283;51.466;5.478;2023-02-20T12:16:31;102164.69;;;20.01;48.11
68366;BME280;55283;51.466;5.478;2023-02-20T12:22:41;102138.69;;;20.04;47.51
68366;BME280;55283;51.466;5.478;2023-02-20T12:25:09;102138.25;;;20.09;47.57
68366;BME280;55283;51.466;5.478;2023-02-20T12:38:47;102142.66;;;20.14;47.25
68366;BME280;55283;51.466;5.478;2023-02-20T12:41:47;102141.03;;;20.17;47.14
68366;BME280;55283;51.466;5.478;2023-02-20T12:44:26;102136.25;;;20.10;47.54
68366;BME280;55283;51.466;5.478;2023-02-20T12:47:15;102134.66;;;20.09;47.55
68366;BME280;55283;51.466;5.478;2023-02-20T13:01:11;102104.28;;;20.11;47.54
68366;BME280;55283;51.466;5.478;2023-02-20T13:06:39;102082.63;;;20.15;47.58
68366;BME280;55283;51.466;5.478;2023-02-20T13:09:27;102087.38;;;20.22;47.34
68366;BME280;55283;51.466;5.478;2023-02-20T13:12:01;102070.22;;;20.20;47.44
68366;BME280;55283;51.466;5.478;2023-02-20T13:14:33;102066.25;;;20.17;47.16
68366;BME280;55283;51.466;5.478;2023-02-20T13:17:29;102072.63;;;20.18;47.43
68366;BME280;55283;51.466;5.478;2023-02-20T13:20:13;102079.06;;;20.07;47.65
68366;BME280;55283;51.466;5.478;2023-02-20T13:22:40;102075.91;;;20.05;47.67
68366;BME280;55283;51.466;5.478;2023-02-20T13:25:35;102078.66;;;20.12;47.53
68366;BME280;55283;51.466;5.478;2023-02-20T13:31:24;102059.06;;;20.12;47.69
68366;BME280;55283;51.466;5.478;2023-02-20T13:36:43;102085.81;;;20.21;47.40
68366;BME280;55283;51.466;5.478;2023-02-20T13:55:09;102048.63;;;20.20;47.42
68366;BME280;55283;51.466;5.478;2023-02-20T13:58:07;102056.22;;;20.20;47.22
68366;BME280;55283;51.466;5.478;2023-02-20T14:00:49;102051.41;;;20.20;46.97
68366;BME280;55283;51.466;5.478;2023-02-20T14:05:43;102053.84;;;20.15;47.29
68366;BME280;55283;51.466;5.478;2023-02-20T14:08:16;102053.09;;;20.10;47.41
68366;BME280;55283;51.466;5.478;2023-02-20T14:10:42;102057.88;;;20.10;47.36
68366;BME280;55283;51.466;5.478;2023-02-20T14:13:17;102055.03;;;20.17;47.37
68366;BME280;55283;51.466;5.478;2023-02-20T14:15:49;102057.38;;;20.26;47.07
68366;BME280;55283;51.466;5.478;2023-02-20T14:18:20;102048.97;;;20.26;47.25
68366;BME280;55283;51.466;5.478;2023-02-20T14:20:50;102044.13;;;20.30;46.96
68366;BME280;55283;51.466;5.478;2023-02-20T14:23:27;102051.72;;;20.37;46.95
68366;BME280;55283;51.466;5.478;2023-02-20T14:28:19;102034.50;;;20.38;46.83
68366;BME280;55283;51.466;5.478;2023-02-20T14:30:44;102036.53;;;20.38;46.60
68366;BME280;55283;51.466;5.478;2023-02-20T14:33:23;102022.88;;;20.36;46.62
68366;BME280;55283;51.466;5.478;2023-02-20T14:40:55;102020.94;;;20.29;46.90
68366;BME280;55283;51.466;5.478;2023-02-20T14:43:23;102034.19;;;20.25;46.72
68366;BME280;55283;51.466;5.478;2023-02-20T14:46:22;102036.63;;;20.20;47.18
68366;BME280;55283;51.466;5.478;2023-02-20T14:48:48;102023.81;;;20.19;47.29
68366;BME280;55283;51.466;5.478;2023-02-20T14:51:22;102019.03;;;20.16;47.13
68366;BME280;55283;51.466;5.478;2023-02-20T14:53:57;102025.84;;;20.15;47.13
68366;BME280;55283;51.466;5.478;2023-02-20T14:56:23;102028.19;;;20.23;47.16
68366;BME280;55283;51.466;5.478;2023-02-20T14:58:49;102020.19;;;20.22;47.11
68366;BME280;55283;51.466;5.478;2023-02-20T15:04:00;102020.25;;;20.15;47.35
68366;BME280;55283;51.466;5.478;2023-02-20T15:06:28;102013.03;;;20.17;47.47